Time;durP1;ratioP1;P1;durP2;ratioP2;P2;SDS_P1;SDS_P2;PMS_P1;PMS_P2;Temp;Humidity;BMP_temperature;BMP_pressure;BME280_temperature;BME280_humidity;BME280_pressure;Samples;Min_cycle;Max_cycle;Signal;HPM_P1;HPM_P2
2021/03/09 00:01:46;;;;;;;6.53;2.97;;;1.90;84.80;;;;;;5079118;28;20257;-81
2021/03/09 00:04:12;;;;;;;4.47;2.60;;;1.90;85.10;;;;;;5046423;28;20173;-82
2021/03/09 00:06:37;;;;;;;3.83;3.07;;;1.80;84.90;;;;;;5063385;28;20203;-81
2021/03/09 00:09:03;;;;;;;5.10;3.37;;;1.80;86.50;;;;;;5062858;28;20220;-81
2021/03/09 00:11:31;;;;;;;6.83;3.03;;;1.80;86.60;;;;;;5060711;28;20235;-81
2021/03/09 00:13:57;;;;;;;5.65;3.05;;;1.90;86.50;;;;;;5061894;28;20183;-81
2021/03/09 00:16:22;;;;;;;8.20;3.77;;;2.10;86.40;;;;;;5050109;28;20248;-81
2021/03/09 00:18:48;;;;;;;5.80;3.07;;;2.00;85.40;;;;;;5073873;28;20208;-81
2021/03/09 00:21:13;;;;;;;4.23;3.17;;;1.90;86.10;;;;;;5071777;28;20268;-81
2021/03/09 00:23:39;;;;;;;5.57;3.10;;;1.80;87.20;;;;;;5051876;28;20219;-81
2021/03/09 00:26:05;;;;;;;5.03;2.67;;;1.90;87.60;;;;;;5063073;28;20179;-82
2021/03/09 00:28:30;;;;;;;8.13;3.13;;;1.60;87.60;;;;;;5063854;28;20551;-82
2021/03/09 00:30:56;;;;;;;4.07;3.20;;;1.40;90.70;;;;;;5062021;28;20275;-82
2021/03/09 00:33:24;;;;;;;5.83;2.70;;;1.50;90.90;;;;;;5062263;28;20188;-81
2021/03/09 00:35:50;;;;;;;4.00;2.47;;;1.60;90.40;;;;;;5059096;28;20266;-81
2021/03/09 00:38:15;;;;;;;4.67;2.73;;;1.60;90.80;;;;;;5060259;28;20208;-82
2021/03/09 00:40:41;;;;;;;3.43;2.53;;;1.50;91.40;;;;;;5058065;28;20188;-81
2021/03/09 00:43:06;;;;;;;10.60;2.90;;;1.50;90.50;;;;;;5057420;28;20173;-81
2021/03/09 00:45:32;;;;;;;7.23;3.27;;;1.50;91.10;;;;;;5042118;28;20176;-81
2021/03/09 00:47:58;;;;;;;5.03;2.23;;;1.60;90.80;;;;;;5077023;28;20172;-81
2021/03/09 00:50:24;;;;;;;5.03;3.47;;;1.50;90.90;;;;;;5060106;28;20219;-81
2021/03/09 00:52:49;;;;;;;9.13;3.40;;;1.40;91.10;;;;;;5060822;28;20440;-81
2021/03/09 00:55:15;;;;;;;4.20;2.80;;;1.30;92.10;;;;;;5060505;28;20195;-81
2021/03/09 00:57:40;;;;;;;5.73;3.50;;;1.50;92.30;;;;;;5058171;28;20226;-81
2021/03/09 01:00:07;;;;;;;4.17;3.20;;;1.70;91.60;;;;;;5065519;28;20203;-80
2021/03/09 01:02:32;;;;;;;4.55;2.65;;;1.80;91.20;;;;;;5064029;28;20177;-81
2021/03/09 01:04:58;;;;;;;7.27;2.93;;;1.90;90.70;;;;;;5073887;28;20203;-81
2021/03/09 01:07:23;;;;;;;8.07;2.93;;;2.00;90.20;;;;;;5058770;28;20184;-81
2021/03/09 01:09:52;;;;;;;12.33;3.03;;;1.90;90.30;;;;;;5059083;28;20196;-80
2021/03/09 01:12:17;;;;;;;4.78;2.75;;;1.90;90.10;;;;;;5062900;28;20261;-81
2021/03/09 01:14:48;;;;;;;5.03;3.30;;;1.80;90.30;;;;;;5041388;28;20392;-81
2021/03/09 01:17:13;;;;;;;3.85;3.20;;;1.80;90.80;;;;;;5058894;28;20221;-80
2021/03/09 01:19:39;;;;;;;4.03;3.13;;;1.80;90.40;;;;;;5041048;28;20192;-81
2021/03/09 01:22:05;;;;;;;7.40;4.00;;;1.40;91.60;;;;;;5057781;28;20220;-81
2021/03/09 01:24:30;;;;;;;6.07;3.37;;;1.70;91.50;;;;;;5058677;28;20164;-81
2021/03/09 01:26:56;;;;;;;6.50;3.50;;;1.60;91.60;;;;;;5058061;28;20169;-81
2021/03/09 01:29:21;;;;;;;4.50;2.90;;;1.70;91.60;;;;;;5056583;28;20277;-81
2021/03/09 01:31:48;;;;;;;6.73;3.57;;;1.80;91.50;;;;;;5058225;28;20203;-81
2021/03/09 01:34:13;;;;;;;3.97;2.80;;;1.80;90.90;;;;;;5056427;28;20309;-81
2021/03/09 01:36:39;;;;;;;5.17;3.03;;;1.60;91.10;;;;;;5057259;28;20200;-81
2021/03/09 01:39:04;;;;;;;4.73;2.60;;;1.60;92.00;;;;;;5056843;28;20540;-81
2021/03/09 01:41:30;;;;;;;3.73;2.57;;;1.70;91.60;;;;;;5056875;28;20172;-81
2021/03/09 01:43:56;;;;;;;9.23;3.50;;;1.80;91.20;;;;;;5056083;28;20176;-80
2021/03/09 01:46:22;;;;;;;6.03;2.97;;;1.70;91.60;;;;;;5056457;28;20747;-81
2021/03/09 01:48:51;;;;;;;5.25;2.80;;;1.60;91.60;;;;;;5058495;28;20532;-80
2021/03/09 01:51:20;;;;;;;2.75;2.20;;;1.70;91.60;;;;;;5057328;28;20164;-81
2021/03/09 01:53:46;;;;;;;5.28;2.67;;;1.70;91.60;;;;;;5057234;28;20226;-80
2021/03/09 01:56:12;;;;;;;10.13;3.60;;;1.60;92.40;;;;;;5057067;28;20623;-80
2021/03/09 01:58:40;;;;;;;5.35;2.47;;;1.60;92.30;;;;;;5057173;28;20291;-82
2021/03/09 02:01:06;;;;;;;4.78;3.10;;;1.50;92.60;;;;;;5057683;28;20165;-81
2021/03/09 02:03:31;;;;;;;3.30;2.20;;;1.60;92.30;;;;;;5059992;28;20188;-80
2021/03/09 02:05:57;;;;;;;6.37;3.63;;;1.70;92.30;;;;;;5073069;28;20173;-79
2021/03/09 02:08:23;;;;;;;4.27;2.70;;;1.70;92.20;;;;;;5091556;28;20169;-79
2021/03/09 02:10:48;;;;;;;8.93;3.60;;;1.70;92.50;;;;;;5062227;28;20204;-81
2021/03/09 02:13:47;;;;;;;8.63;4.17;;;1.70;92.40;;;;;;5074086;28;20439;-81
2021/03/09 02:16:21;;;;;;;10.05;3.30;;;1.70;92.50;;;;;;5052809;28;20250;-81
2021/03/09 02:18:53;;;;;;;8.18;3.20;;;1.60;92.90;;;;;;5057172;28;20621;-81
2021/03/09 02:21:58;;;;;;;13.52;4.57;;;1.60;93.20;;;;;;5057035;28;20255;-80
2021/03/09 02:24:35;;;;;;;5.45;2.83;;;1.40;93.90;;;;;;5058609;28;20223;-81
2021/03/09 02:27:29;;;;;;;4.90;2.60;;;1.50;94.40;;;;;;5057715;28;20164;-81
2021/03/09 02:30:14;;;;;;;7.93;2.80;;;1.50;94.20;;;;;;5057139;28;20197;-81
2021/03/09 02:33:06;;;;;;;7.63;3.75;;;1.60;94.30;;;;;;5056967;28;20165;-81
2021/03/09 02:35:39;;;;;;;6.07;4.15;;;1.50;94.80;;;;;;5047984;28;20188;-81
2021/03/09 02:38:08;;;;;;;4.25;2.60;;;1.40;95.20;;;;;;5056092;28;20620;-80
2021/03/09 02:40:37;;;;;;;6.85;2.88;;;1.50;94.70;;;;;;5055654;28;20189;-82
2021/03/09 02:43:10;;;;;;;4.30;3.05;;;1.50;94.70;;;;;;5056571;28;20454;-81
2021/03/09 02:45:36;;;;;;;6.22;2.97;;;1.50;94.40;;;;;;5056034;28;20574;-80
2021/03/09 02:48:04;;;;;;;7.13;2.97;;;1.50;94.40;;;;;;5056212;28;20195;-80
2021/03/09 02:50:32;;;;;;;4.30;2.78;;;1.60;94.30;;;;;;5061992;28;20189;-79
2021/03/09 02:53:04;;;;;;;6.47;3.17;;;1.50;94.20;;;;;;5059921;28;20302;-81
2021/03/09 02:55:32;;;;;;;2.95;2.50;;;1.40;94.50;;;;;;5040426;28;20177;-80
2021/03/09 02:57:59;;;;;;;3.67;3.30;;;1.40;94.90;;;;;;5039827;28;20824;-80
2021/03/09 03:00:26;;;;;;;3.35;3.05;;;1.40;95.30;;;;;;5058482;28;20189;-81
2021/03/09 03:02:52;;;;;;;4.10;3.40;;;1.20;95.80;;;;;;5039931;28;20176;-81
2021/03/09 03:05:19;;;;;;;6.07;2.80;;;1.30;96.10;;;;;;5039630;28;20227;-80
2021/03/09 03:07:45;;;;;;;9.93;3.83;;;1.20;95.70;;;;;;5055717;28;20187;-82
2021/03/09 03:10:16;;;;;;;9.65;3.60;;;1.40;95.60;;;;;;5071930;28;20196;-80
2021/03/09 03:12:43;;;;;;;4.68;3.20;;;1.40;95.20;;;;;;5074714;28;20164;-81
2021/03/09 03:15:11;;;;;;;5.28;3.92;;;1.30;95.80;;;;;;5061103;28;20236;-79
2021/03/09 03:17:38;;;;;;;6.97;3.55;;;1.40;95.60;;;;;;5044136;28;20272;-80
2021/03/09 03:20:08;;;;;;;6.10;2.78;;;1.40;95.60;;;;;;5062956;28;20196;-81
2021/03/09 03:22:37;;;;;;;10.32;3.45;;;1.40;95.60;;;;;;5077388;28;20235;-80
2021/03/09 03:25:05;;;;;;;5.88;3.40;;;1.40;95.70;;;;;;5065852;28;20172;-80
2021/03/09 03:27:32;;;;;;;8.82;3.70;;;1.40;95.50;;;;;;5064969;28;20179;-81
2021/03/09 03:29:57;;;;;;;4.47;2.35;;;1.10;96.80;;;;;;5055592;28;20196;-78
2021/03/09 03:32:23;;;;;;;4.47;2.40;;;1.10;97.30;;;;;;5052506;28;20187;-79
2021/03/09 03:34:49;;;;;;;4.13;2.57;;;0.80;98.40;;;;;;5052463;28;20242;-78
2021/03/09 03:37:15;;;;;;;4.73;3.17;;;0.30;99.90;;;;;;5050623;28;20624;-78
2021/03/09 03:39:41;;;;;;;5.97;2.83;;;-0.10;99.90;;;;;;5050786;28;20435;-78
2021/03/09 03:42:09;;;;;;;9.88;4.25;;;-0.20;99.90;;;;;;5050432;28;20430;-78
2021/03/09 03:44:35;;;;;;;3.35;2.33;;;0.10;99.90;;;;;;5051913;28;20165;-81
2021/03/09 03:47:00;;;;;;;9.03;2.77;;;0.00;99.90;;;;;;5050692;28;20706;-79
2021/03/09 03:49:26;;;;;;;7.43;3.43;;;0.00;99.90;;;;;;5067337;28;20676;-78
2021/03/09 03:52:21;;;;;;;5.53;2.87;;;0.40;99.90;;;;;;5053607;28;20181;-79
2021/03/09 03:55:10;;;;;;;8.07;3.50;;;0.70;99.90;;;;;;5055670;28;20543;-78
2021/03/09 03:57:44;;;;;;;4.13;3.05;;;0.70;99.90;;;;;;5055533;28;20192;-79
2021/03/09 04:00:11;;;;;;;4.40;2.80;;;0.20;99.90;;;;;;5055601;28;20197;-79
2021/03/09 04:02:37;;;;;;;11.13;2.95;;;0.60;99.90;;;;;;5055636;28;20173;-79
2021/03/09 04:05:06;;;;;;;11.88;3.55;;;0.80;99.90;;;;;;5055634;28;20161;-79
2021/03/09 04:07:33;;;;;;;5.10;2.97;;;0.60;99.90;;;;;;5054534;28;20211;-80
2021/03/09 04:10:00;;;;;;;6.47;3.17;;;0.60;99.90;;;;;;5055731;28;20566;-79
2021/03/09 04:12:28;;;;;;;9.98;3.47;;;0.70;99.90;;;;;;5055755;28;20196;-78
2021/03/09 04:14:57;;;;;;;12.57;4.10;;;0.60;99.90;;;;;;5056079;28;20169;-78
2021/03/09 04:17:23;;;;;;;8.70;2.70;;;0.40;99.90;;;;;;5056370;28;20192;-78
2021/03/09 04:19:51;;;;;;;10.75;3.40;;;0.80;99.90;;;;;;5072306;28;20238;-84
2021/03/09 04:22:18;;;;;;;6.93;3.90;;;0.90;99.90;;;;;;5062695;28;20200;-79
2021/03/09 04:24:45;;;;;;;8.77;2.88;;;1.00;99.90;;;;;;5055841;28;20199;-78
2021/03/09 04:27:21;;;;;;;9.75;3.70;;;1.10;99.90;;;;;;5055948;28;20716;-78
2021/03/09 04:29:58;;;;;;;9.10;3.35;;;1.10;99.90;;;;;;5055291;28;20271;-81
2021/03/09 04:32:25;;;;;;;4.75;3.15;;;1.10;99.90;;;;;;5054394;28;20180;-79
2021/03/09 04:34:51;;;;;;;2.45;1.83;;;1.10;99.90;;;;;;5037084;28;20239;-79
2021/03/09 04:37:18;;;;;;;5.97;3.60;;;1.10;99.90;;;;;;5053802;28;20181;-78
2021/03/09 04:39:44;;;;;;;7.13;3.80;;;1.10;99.90;;;;;;5054541;28;20196;-78
2021/03/09 04:42:11;;;;;;;5.65;2.92;;;1.20;99.90;;;;;;5055041;28;20169;-79
2021/03/09 04:44:37;;;;;;;9.25;4.15;;;1.20;99.90;;;;;;5054699;28;20176;-78
2021/03/09 04:47:04;;;;;;;6.43;3.40;;;1.20;99.90;;;;;;5054584;28;20267;-80
2021/03/09 04:49:34;;;;;;;8.05;3.88;;;0.90;99.90;;;;;;5054501;28;20184;-79
2021/03/09 04:52:00;;;;;;;4.88;3.03;;;0.70;99.90;;;;;;5054625;28;20164;-79
2021/03/09 04:54:27;;;;;;;4.35;2.55;;;0.90;99.90;;;;;;5053192;28;20172;-79
2021/03/09 04:56:52;;;;;;;9.65;3.70;;;1.00;99.90;;;;;;5054810;28;20639;-78
2021/03/09 04:59:18;;;;;;;12.03;3.07;;;0.70;99.90;;;;;;5054588;28;20209;-78
2021/03/09 05:01:44;;;;;;;8.75;4.18;;;0.70;99.90;;;;;;5054030;28;20411;-78
2021/03/09 05:04:10;;;;;;;4.85;2.53;;;0.80;99.90;;;;;;5054080;28;20628;-78
2021/03/09 05:06:36;;;;;;;4.23;2.50;;;0.90;99.90;;;;;;5054363;28;20219;-79
2021/03/09 05:09:02;;;;;;;7.03;4.10;;;0.90;99.90;;;;;;5054505;28;20192;-79
2021/03/09 05:11:29;;;;;;;5.97;4.07;;;1.00;99.90;;;;;;5056480;28;20926;-80
2021/03/09 05:13:57;;;;;;;6.50;3.72;;;1.00;99.90;;;;;;5055696;28;20176;-78
2021/03/09 05:16:23;;;;;;;4.07;3.00;;;1.00;99.90;;;;;;5055016;28;20172;-78
2021/03/09 05:18:51;;;;;;;8.90;3.70;;;1.10;99.90;;;;;;5054159;28;20208;-78
2021/03/09 05:21:17;;;;;;;7.85;3.63;;;1.00;99.90;;;;;;5037328;28;20430;-78
2021/03/09 05:23:43;;;;;;;6.67;3.40;;;1.10;99.90;;;;;;5053309;28;20200;-79
2021/03/09 05:26:09;;;;;;;8.85;3.70;;;1.00;99.90;;;;;;5055059;28;20415;-79
2021/03/09 05:28:34;;;;;;;6.73;4.30;;;1.00;99.90;;;;;;5055433;28;20175;-80
2021/03/09 05:31:00;;;;;;;5.70;3.47;;;1.00;99.90;;;;;;5055185;28;20422;-81
2021/03/09 05:33:26;;;;;;;6.30;3.10;;;1.00;99.90;;;;;;5053891;28;20181;-80
2021/03/09 05:35:52;;;;;;;4.23;3.40;;;0.70;99.90;;;;;;5054980;28;20430;-80
2021/03/09 05:38:18;;;;;;;6.50;3.23;;;0.60;99.90;;;;;;5056498;28;20218;-81
2021/03/09 05:40:43;;;;;;;7.93;3.73;;;0.50;99.90;;;;;;5050439;28;20193;-81
2021/03/09 05:43:10;;;;;;;3.73;3.10;;;0.50;99.90;;;;;;5056690;28;20453;-80
2021/03/09 05:45:37;;;;;;;5.00;3.63;;;0.50;99.90;;;;;;5058375;28;20411;-79
2021/03/09 05:48:03;;;;;;;6.43;3.88;;;0.70;99.90;;;;;;5060090;28;20243;-80
2021/03/09 05:50:29;;;;;;;5.10;2.75;;;0.50;99.90;;;;;;5440463;23;20224;-80
2021/03/09 05:52:54;;;;;;;8.63;3.65;;;0.60;99.90;;;;;;5074002;28;20169;-82
2021/03/09 05:55:21;;;;;;;7.40;3.80;;;0.70;99.90;;;;;;5073598;28;20263;-78
2021/03/09 05:57:47;;;;;;;4.75;3.80;;;0.50;99.90;;;;;;5074204;28;20242;-79
2021/03/09 06:00:13;;;;;;;9.48;3.80;;;0.20;99.90;;;;;;5061213;28;20205;-80
2021/03/09 06:02:39;;;;;;;9.15;3.28;;;0.40;99.90;;;;;;5061976;28;20181;-80
2021/03/09 06:05:07;;;;;;;5.83;3.50;;;0.70;99.90;;;;;;5053547;28;20219;-79
2021/03/09 06:07:35;;;;;;;6.68;4.63;;;1.00;99.90;;;;;;5053338;28;20184;-78
2021/03/09 06:10:01;;;;;;;5.68;3.50;;;1.20;99.90;;;;;;5053759;28;20552;-78
2021/03/09 06:12:26;;;;;;;10.20;3.67;;;1.30;99.90;;;;;;5043775;28;20183;-77
2021/03/09 06:14:55;;;;;;;14.23;4.17;;;1.30;99.90;;;;;;5072508;28;20411;-79
2021/03/09 06:17:35;;;;;;;4.90;2.72;;;1.30;99.90;;;;;;5065391;28;20184;-78
2021/03/09 06:20:01;;;;;;;10.00;3.80;;;1.50;99.90;;;;;;5055042;28;20177;-77
2021/03/09 06:22:41;;;;;;;5.13;2.97;;;1.40;99.90;;;;;;5062616;28;20176;-77
2021/03/09 06:25:10;;;;;;;15.43;3.67;;;1.20;99.90;;;;;;5071547;28;20659;-78
2021/03/09 06:27:36;;;;;;;11.30;4.70;;;1.40;99.90;;;;;;5064500;28;20509;-79
2021/03/09 06:30:05;;;;;;;8.02;4.45;;;1.00;99.90;;;;;;5052912;28;20193;-80
2021/03/09 06:32:43;;;;;;;6.28;4.10;;;1.20;99.90;;;;;;5066601;28;20542;-77
2021/03/09 06:35:42;;;;;;;7.25;3.70;;;1.00;99.90;;;;;;5071945;28;20229;-77
2021/03/09 06:38:26;;;;;;;9.07;3.60;;;1.20;99.90;;;;;;5050467;28;20212;-78
2021/03/09 06:41:09;;;;;;;6.93;3.25;;;1.10;99.90;;;;;;5056675;28;20169;-78
2021/03/09 06:43:36;;;;;;;6.90;3.83;;;1.20;99.90;;;;;;5064860;28;20213;-79
2021/03/09 06:46:22;;;;;;;10.23;3.63;;;1.30;99.90;;;;;;5053673;28;20168;-78
2021/03/09 06:49:03;;;;;;;7.88;3.90;;;1.50;99.90;;;;;;5055042;28;20220;-77
2021/03/09 06:51:34;;;;;;;5.75;4.30;;;1.80;99.90;;;;;;5069035;28;20200;-78
2021/03/09 06:54:08;;;;;;;19.13;4.20;;;1.80;99.90;;;;;;5071557;28;20165;-80
2021/03/09 06:56:36;;;;;;;5.68;3.28;;;1.90;99.90;;;;;;5059958;28;20196;-78
2021/03/09 06:59:26;;;;;;;6.38;4.70;;;1.90;99.90;;;;;;5053803;28;20236;-77
2021/03/09 07:02:20;;;;;;;6.78;3.80;;;2.10;99.90;;;;;;5053559;28;20169;-80
2021/03/09 07:04:50;;;;;;;11.80;4.10;;;2.20;99.90;;;;;;5066445;28;20180;-80
2021/03/09 07:07:38;;;;;;;10.73;4.90;;;2.30;99.90;;;;;;5078463;28;20188;-80
2021/03/09 07:10:03;;;;;;;7.82;4.55;;;2.40;98.80;;;;;;5053099;28;20223;-79
2021/03/09 07:12:29;;;;;;;13.40;5.80;;;2.30;99.30;;;;;;5052243;28;20176;-81
2021/03/09 07:14:56;;;;;;;4.72;3.55;;;2.30;99.00;;;;;;5060249;28;20179;-79
2021/03/09 07:17:28;;;;;;;5.57;4.20;;;2.40;98.10;;;;;;5049325;28;20710;-83
2021/03/09 07:19:54;;;;;;;7.97;4.22;;;2.40;98.70;;;;;;5062718;28;20196;-77
2021/03/09 07:22:21;;;;;;;9.45;4.03;;;2.50;98.10;;;;;;5050135;28;20199;-80
2021/03/09 07:24:58;;;;;;;8.07;3.95;;;2.50;98.20;;;;;;5051683;28;20207;-81
2021/03/09 07:27:52;;;;;;;7.82;4.57;;;2.40;98.50;;;;;;5077770;28;20167;-80
2021/03/09 07:30:19;;;;;;;7.75;4.45;;;2.50;99.00;;;;;;5076234;28;20188;-80
2021/03/09 07:32:53;;;;;;;9.40;5.47;;;2.40;98.40;;;;;;5059349;28;20201;-77
2021/03/09 07:35:21;;;;;;;8.30;4.50;;;2.40;98.60;;;;;;5070016;28;20164;-78
2021/03/09 07:37:48;;;;;;;11.75;4.75;;;2.50;98.50;;;;;;5075650;28;20597;-78
2021/03/09 07:40:17;;;;;;;9.40;4.75;;;2.50;98.40;;;;;;5059475;28;20591;-77
2021/03/09 07:42:43;;;;;;;8.45;4.63;;;2.30;99.70;;;;;;5055455;28;20255;-77
2021/03/09 07:45:14;;;;;;;7.32;4.80;;;2.40;99.00;;;;;;5062823;28;20185;-78
2021/03/09 07:47:44;;;;;;;10.30;4.72;;;2.40;99.60;;;;;;5075247;28;20180;-80
2021/03/09 07:50:13;;;;;;;9.38;5.03;;;2.40;99.50;;;;;;5076938;28;20269;-80
2021/03/09 07:52:38;;;;;;;10.23;6.13;;;2.30;99.90;;;;;;5065237;28;20196;-81
2021/03/09 07:55:04;;;;;;;8.37;4.17;;;2.30;99.40;;;;;;5069148;28;20211;-81
2021/03/09 07:57:32;;;;;;;12.37;6.80;;;2.10;99.80;;;;;;5067390;28;20188;-80
2021/03/09 07:59:58;;;;;;;10.95;5.40;;;1.80;99.90;;;;;;5082801;28;20196;-81
2021/03/09 08:02:51;;;;;;;8.75;5.45;;;2.10;99.90;;;;;;5067287;28;20173;-81
2021/03/09 08:05:21;;;;;;;11.00;5.32;;;2.10;99.90;;;;;;5078166;28;20251;-82
2021/03/09 08:07:51;;;;;;;11.25;5.07;;;2.40;99.90;;;;;;5063922;28;20176;-81
2021/03/09 08:10:29;;;;;;;6.30;4.13;;;2.70;99.90;;;;;;5064604;28;20208;-81
2021/03/09 08:13:18;;;;;;;12.95;4.70;;;2.80;98.70;;;;;;5060517;28;20164;-82
2021/03/09 08:15:44;;;;;;;8.63;4.70;;;2.90;99.00;;;;;;5055989;28;20215;-81
2021/03/09 08:18:21;;;;;;;9.57;5.00;;;2.90;98.60;;;;;;5075346;28;20191;-82
2021/03/09 08:20:54;;;;;;;11.20;5.10;;;2.90;98.70;;;;;;5079286;28;20247;-81
2021/03/09 08:23:35;;;;;;;11.68;4.72;;;3.00;98.30;;;;;;5077481;28;20185;-81
2021/03/09 08:26:07;;;;;;;10.52;5.70;;;3.20;96.10;;;;;;5070963;28;20174;-79
2021/03/09 08:28:38;;;;;;;10.38;4.35;;;3.20;94.90;;;;;;5076458;28;20177;-82
2021/03/09 08:31:18;;;;;;;8.75;3.80;;;3.50;92.40;;;;;;5048933;28;20181;-82
2021/03/09 08:33:54;;;;;;;12.23;5.65;;;3.60;90.40;;;;;;5080574;28;20168;-81
2021/03/09 08:36:20;;;;;;;11.27;4.63;;;3.70;88.70;;;;;;5057071;28;20643;-82
2021/03/09 08:39:19;;;;;;;9.13;5.53;;;3.70;87.10;;;;;;5066212;28;20212;-81
2021/03/09 08:41:44;;;;;;;9.77;4.47;;;3.80;85.90;;;;;;5069707;28;20241;-81
2021/03/09 08:44:16;;;;;;;7.80;4.30;;;3.90;84.70;;;;;;5060993;28;20176;-83
2021/03/09 08:46:59;;;;;;;8.48;5.13;;;3.90;83.00;;;;;;5067885;28;20172;-82
2021/03/09 08:49:34;;;;;;;7.82;5.40;;;4.00;81.30;;;;;;5060176;28;20204;-81
2021/03/09 08:52:06;;;;;;;13.13;5.18;;;4.00;81.10;;;;;;5080061;28;20210;-82
2021/03/09 08:54:42;;;;;;;11.10;4.47;;;4.00;81.00;;;;;;5066132;28;20188;-82
2021/03/09 08:57:24;;;;;;;9.00;4.57;;;4.10;80.10;;;;;;5061756;28;20168;-81
2021/03/09 08:59:51;;;;;;;7.47;4.25;;;4.10;79.20;;;;;;5075164;28;20215;-83
2021/03/09 09:02:26;;;;;;;11.85;4.88;;;4.10;78.40;;;;;;5060732;28;20552;-82
2021/03/09 09:04:58;;;;;;;9.35;5.40;;;4.10;77.40;;;;;;5038214;28;20180;-81
2021/03/09 09:07:26;;;;;;;14.65;4.55;;;4.10;77.90;;;;;;5064669;28;20558;-82
2021/03/09 09:09:56;;;;;;;5.90;4.25;;;4.30;77.10;;;;;;5060407;28;20737;-81
2021/03/09 09:12:24;;;;;;;10.50;4.82;;;4.20;78.00;;;;;;5072372;28;20175;-81
2021/03/09 09:15:17;;;;;;;12.60;4.60;;;4.40;77.60;;;;;;5060322;28;20670;-81
2021/03/09 09:17:45;;;;;;;8.93;3.53;;;4.50;74.00;;;;;;5059855;28;20200;-82
2021/03/09 09:20:18;;;;;;;6.43;4.50;;;4.50;73.80;;;;;;5051365;28;20231;-82
2021/03/09 09:22:45;;;;;;;6.88;5.00;;;4.50;73.50;;;;;;5066781;28;20180;-82
2021/03/09 09:25:13;;;;;;;15.50;4.82;;;4.60;73.40;;;;;;5085700;28;20176;-81
2021/03/09 09:27:47;;;;;;;10.93;4.50;;;4.60;74.10;;;;;;5082652;28;20176;-81
2021/03/09 09:30:16;;;;;;;12.10;3.63;;;4.80;72.00;;;;;;5069295;28;20675;-81
2021/03/09 09:32:57;;;;;;;6.63;4.00;;;4.90;70.40;;;;;;5071118;28;20528;-80
2021/03/09 09:35:26;;;;;;;4.65;3.85;;;4.90;69.80;;;;;;5068291;28;20189;-82
2021/03/09 09:37:59;;;;;;;8.38;3.47;;;5.10;66.50;;;;;;5056508;28;20678;-82
2021/03/09 09:40:31;;;;;;;8.52;5.05;;;4.90;66.30;;;;;;5069121;28;20266;-82
2021/03/09 09:43:03;;;;;;;5.88;3.75;;;5.10;65.20;;;;;;5079349;28;20194;-83
2021/03/09 09:45:30;;;;;;;5.45;4.05;;;5.20;64.60;;;;;;5062624;28;20180;-82
2021/03/09 09:47:58;;;;;;;10.55;4.95;;;5.30;64.30;;;;;;5057869;28;20291;-83
2021/03/09 09:50:27;;;;;;;8.00;4.20;;;5.40;63.00;;;;;;5057179;28;20208;-83
2021/03/09 09:52:57;;;;;;;4.80;4.15;;;5.40;61.90;;;;;;5059865;28;20179;-83
2021/03/09 09:55:32;;;;;;;8.05;5.00;;;5.40;62.10;;;;;;5044575;28;20179;-81
2021/03/09 09:58:00;;;;;;;5.55;4.15;;;5.50;62.00;;;;;;5072430;28;20229;-81
2021/03/09 10:00:28;;;;;;;6.45;3.15;;;5.50;59.90;;;;;;5068611;28;20197;-82
2021/03/09 10:03:17;;;;;;;5.05;3.47;;;5.60;58.40;;;;;;5057932;28;20632;-81
2021/03/09 10:05:44;;;;;;;7.80;4.30;;;5.70;58.10;;;;;;5063897;28;20204;-82
2021/03/09 10:08:11;;;;;;;6.47;4.07;;;5.50;58.90;;;;;;5047612;28;20642;-82
2021/03/09 10:10:39;;;;;;;6.05;3.53;;;5.10;58.90;;;;;;5077943;28;20351;-82
2021/03/09 10:13:22;;;;;;;5.72;4.47;;;5.40;59.90;;;;;;5046637;28;20176;-83
2021/03/09 10:15:49;;;;;;;6.85;4.63;;;5.60;59.50;;;;;;5056479;28;20635;-82
2021/03/09 10:18:26;;;;;;;3.50;3.13;;;5.70;56.70;;;;;;5075605;28;20207;-81
2021/03/09 10:21:19;;;;;;;4.75;2.83;;;5.80;56.70;;;;;;5077029;28;20214;-82
2021/03/09 10:24:00;;;;;;;3.45;2.55;;;6.00;54.80;;;;;;5080977;28;20188;-82
2021/03/09 10:26:34;;;;;;;5.88;3.10;;;6.10;53.70;;;;;;5077651;28;20172;-82
2021/03/09 10:29:02;;;;;;;6.10;3.13;;;6.20;53.20;;;;;;5077177;28;20254;-81
2021/03/09 10:31:45;;;;;;;4.13;2.75;;;6.30;52.30;;;;;;5060532;28;20177;-81
2021/03/09 10:34:12;;;;;;;5.45;2.90;;;6.40;52.70;;;;;;5061790;28;20185;-82
2021/03/09 10:36:51;;;;;;;7.63;3.20;;;6.50;52.40;;;;;;5063406;28;20650;-83
2021/03/09 10:39:17;;;;;;;5.13;2.95;;;6.60;51.90;;;;;;5072425;28;20204;-82
2021/03/09 10:41:43;;;;;;;5.47;3.15;;;6.70;51.40;;;;;;5068599;28;20586;-82
2021/03/09 10:44:35;;;;;;;7.83;4.30;;;6.60;51.70;;;;;;5054617;28;20189;-83
2021/03/09 10:47:05;;;;;;;5.97;3.10;;;6.70;51.60;;;;;;5053025;28;20473;-82
2021/03/09 10:49:31;;;;;;;8.52;3.55;;;6.80;51.20;;;;;;5073531;28;20563;-82
2021/03/09 10:52:08;;;;;;;9.82;3.33;;;6.70;50.20;;;;;;5053338;28;20271;-82
2021/03/09 10:54:37;;;;;;;16.00;4.35;;;6.70;51.30;;;;;;5061057;28;20172;-82
2021/03/09 10:57:07;;;;;;;4.63;2.70;;;6.80;50.90;;;;;;5063314;28;20177;-81
2021/03/09 10:59:33;;;;;;;5.07;3.00;;;6.90;50.20;;;;;;5057496;28;20343;-83
2021/03/09 11:01:59;;;;;;;8.50;2.80;;;6.90;48.10;;;;;;5064895;28;20209;-83
2021/03/09 11:04:25;;;;;;;4.00;2.87;;;7.00;47.80;;;;;;5057322;28;20686;-82
2021/03/09 11:06:50;;;;;;;4.77;2.30;;;7.00;47.30;;;;;;5061439;28;20627;-81
2021/03/09 11:09:16;;;;;;;8.43;2.63;;;7.00;47.50;;;;;;5059573;28;20439;-82
2021/03/09 11:11:42;;;;;;;8.75;2.60;;;7.00;47.80;;;;;;5078792;28;20190;-81
2021/03/09 11:14:07;;;;;;;3.43;2.00;;;7.10;47.60;;;;;;5079471;28;20211;-81
2021/03/09 11:16:33;;;;;;;6.20;2.20;;;7.10;46.20;;;;;;5070476;28;20203;-80
2021/03/09 11:19:00;;;;;;;5.33;1.93;;;7.10;44.50;;;;;;5063080;28;20433;-81
2021/03/09 11:21:26;;;;;;;3.28;2.30;;;7.10;45.10;;;;;;5067977;28;20226;-80
2021/03/09 11:23:52;;;;;;;7.68;2.85;;;7.10;44.20;;;;;;5061510;28;20188;-80
2021/03/09 11:26:20;;;;;;;2.80;1.60;;;7.00;44.10;;;;;;5075365;28;20551;-80
2021/03/09 11:28:46;;;;;;;2.75;1.95;;;7.00;43.60;;;;;;5059350;28;20203;-80
2021/03/09 11:31:14;;;;;;;9.68;2.85;;;7.00;44.00;;;;;;5076137;28;20717;-80
2021/03/09 11:33:39;;;;;;;2.13;1.92;;;7.10;45.00;;;;;;5077366;28;20536;-80
2021/03/09 11:36:05;;;;;;;2.00;1.30;;;7.10;42.80;;;;;;5053954;28;20187;-78
2021/03/09 11:38:31;;;;;;;2.55;1.75;;;7.20;42.70;;;;;;5071785;28;20204;-78
2021/03/09 11:40:56;;;;;;;3.20;2.40;;;7.20;41.70;;;;;;5071103;28;20200;-79
2021/03/09 11:43:22;;;;;;;2.20;1.73;;;7.20;42.50;;;;;;5054445;28;20218;-79
2021/03/09 11:45:48;;;;;;;3.13;2.07;;;7.40;42.40;;;;;;5062263;28;20188;-80
2021/03/09 11:48:13;;;;;;;6.80;2.80;;;7.30;43.00;;;;;;5064865;28;20179;-79
2021/03/09 11:50:39;;;;;;;4.63;2.10;;;7.50;42.20;;;;;;5026194;28;20690;-80
2021/03/09 11:53:04;;;;;;;4.67;2.60;;;7.50;41.20;;;;;;5055316;28;20188;-81
2021/03/09 11:55:30;;;;;;;20.83;3.40;;;7.50;41.60;;;;;;5056659;28;20272;-80
2021/03/09 11:57:55;;;;;;;5.43;2.60;;;7.50;42.30;;;;;;5055648;28;20201;-79
2021/03/09 12:00:22;;;;;;;4.80;2.20;;;7.50;42.70;;;;;;5039875;28;20212;-79
2021/03/09 12:02:48;;;;;;;7.18;2.90;;;7.50;42.70;;;;;;5076005;28;20183;-79
2021/03/09 12:05:14;;;;;;;4.10;1.98;;;7.50;43.10;;;;;;5060321;28;20177;-80
2021/03/09 12:07:40;;;;;;;3.42;2.50;;;7.50;43.00;;;;;;5056445;28;20173;-80
2021/03/09 12:10:06;;;;;;;3.40;2.17;;;7.30;42.60;;;;;;5071728;28;20730;-80
2021/03/09 12:12:32;;;;;;;3.10;2.05;;;7.30;42.60;;;;;;5067174;28;20187;-79
2021/03/09 12:14:57;;;;;;;2.10;1.90;;;7.20;42.00;;;;;;5073903;28;20204;-81
2021/03/09 12:17:23;;;;;;;2.83;2.30;;;7.20;40.80;;;;;;5059312;28;20211;-79
2021/03/09 12:19:48;;;;;;;7.67;2.60;;;7.30;40.90;;;;;;5073162;28;20204;-79
2021/03/09 12:22:14;;;;;;;10.83;2.57;;;7.20;41.00;;;;;;5064057;28;20184;-80
2021/03/09 12:24:39;;;;;;;4.90;3.20;;;7.10;41.20;;;;;;5074110;28;20186;-80
2021/03/09 12:27:05;;;;;;;3.07;2.60;;;7.10;43.00;;;;;;5066014;28;20181;-80
2021/03/09 12:29:31;;;;;;;5.97;3.37;;;7.20;43.60;;;;;;5070916;28;20559;-80
2021/03/09 12:31:56;;;;;;;3.93;3.00;;;7.20;43.70;;;;;;5083163;28;20462;-80
2021/03/09 12:34:22;;;;;;;3.67;2.50;;;7.20;43.30;;;;;;5067168;28;20180;-80
2021/03/09 12:36:47;;;;;;;3.80;2.37;;;7.20;43.00;;;;;;5052039;28;20184;-80
2021/03/09 12:39:13;;;;;;;6.80;3.00;;;7.30;43.50;;;;;;5074570;28;20204;-79
2021/03/09 12:41:39;;;;;;;4.27;2.87;;;7.20;42.00;;;;;;5069591;28;20617;-78
2021/03/09 12:44:04;;;;;;;2.87;2.20;;;6.90;41.60;;;;;;5079653;28;20243;-79
2021/03/09 12:46:30;;;;;;;3.23;2.10;;;6.70;42.20;;;;;;5085868;28;20168;-79
2021/03/09 12:48:56;;;;;;;4.03;2.63;;;6.90;43.00;;;;;;5076642;28;20453;-78
2021/03/09 12:51:21;;;;;;;2.83;2.63;;;7.20;43.00;;;;;;5068243;28;20194;-79
2021/03/09 12:53:47;;;;;;;4.73;3.50;;;7.50;42.80;;;;;;5091811;28;20180;-78
2021/03/09 12:56:12;;;;;;;3.13;2.83;;;7.60;42.20;;;;;;5096476;28;20163;-80
2021/03/09 12:58:38;;;;;;;4.43;2.57;;;7.60;41.30;;;;;;5093511;28;20210;-81
2021/03/09 13:01:04;;;;;;;8.47;2.70;;;7.50;41.50;;;;;;5080563;28;20187;-79
2021/03/09 13:03:30;;;;;;;5.65;2.85;;;7.50;42.50;;;;;;5080473;28;20199;-81
2021/03/09 13:05:56;;;;;;;3.10;2.35;;;7.50;42.50;;;;;;5082622;28;20255;-80
2021/03/09 13:08:21;;;;;;;4.00;2.43;;;7.50;42.40;;;;;;5083087;28;20203;-81